Time;durP1;ratioP1;P1;durP2;ratioP2;P2;SDS_P1;SDS_P2;PMS_P1;PMS_P2;Temp;Humidity;BMP_temperature;BMP_pressure;BME280_temperature;BME280_humidity;BME280_pressure;Samples;Min_cycle;Max_cycle;Signal;HPM_P1;HPM_P2
2023/04/20 00:01:04;;;;;;;6.00;5.50;;;22.20;72.60;;;;;;6242654;28;89091;-69
2023/04/20 00:04:06;;;;;;;6.15;5.63;;;22.20;72.50;;;;;;6255608;28;89248;-70
2023/04/20 00:07:09;;;;;;;5.80;5.30;;;22.20;72.50;;;;;;6255524;28;90649;-69
2023/04/20 00:10:11;;;;;;;6.00;5.50;;;22.20;72.50;;;;;;6243265;28;88999;-69
2023/04/20 00:13:13;;;;;;;6.10;5.50;;;22.20;72.50;;;;;;6250756;28;89022;-69
2023/04/20 00:16:16;;;;;;;6.15;5.55;;;22.20;72.60;;;;;;6250848;28;88014;-69
2023/04/20 00:19:19;;;;;;;6.15;5.55;;;22.20;72.50;;;;;;6252126;28;88461;-69
2023/04/20 00:22:21;;;;;;;6.18;5.57;;;22.20;72.50;;;;;;6258175;28;90415;-69
2023/04/20 00:25:23;;;;;;;6.00;5.40;;;22.20;72.50;;;;;;6255327;28;89127;-69
2023/04/20 00:28:25;;;;;;;5.80;5.30;;;22.20;72.50;;;;;;6256999;28;89935;-69
2023/04/20 00:31:29;;;;;;;6.00;5.50;;;22.20;72.50;;;;;;6258076;28;89099;-69
2023/04/20 00:34:31;;;;;;;6.38;5.78;;;22.20;72.50;;;;;;6258402;28;89141;-70
2023/04/20 00:37:33;;;;;;;5.80;5.30;;;22.10;72.50;;;;;;6257286;28;89911;-69
2023/04/20 00:40:35;;;;;;;6.28;5.72;;;22.10;72.50;;;;;;6254488;28;89070;-69
2023/04/20 00:43:37;;;;;;;5.97;5.38;;;22.10;72.50;;;;;;6257425;28;89414;-69
2023/04/20 00:46:41;;;;;;;6.57;5.97;;;22.10;72.50;;;;;;6258175;28;89116;-69
2023/04/20 00:49:43;;;;;;;5.53;5.03;;;22.10;72.50;;;;;;6250554;28;88091;-69
2023/04/20 00:52:45;;;;;;;5.78;5.28;;;22.10;72.70;;;;;;6247230;28;89061;-69
2023/04/20 00:55:48;;;;;;;5.60;5.10;;;22.10;72.70;;;;;;6238507;28;90227;-69
2023/04/20 00:58:50;;;;;;;7.90;5.57;;;22.10;72.60;;;;;;6246072;28;90177;-68
2023/04/20 01:01:54;;;;;;;6.32;5.72;;;22.10;72.60;;;;;;6250260;28;89176;-68
2023/04/20 01:04:56;;;;;;;5.93;5.15;;;22.10;72.60;;;;;;6255483;28;89124;-69
2023/04/20 01:07:58;;;;;;;5.72;5.22;;;22.10;72.70;;;;;;6254598;28;89298;-69
2023/04/20 01:11:00;;;;;;;5.43;4.93;;;22.10;72.50;;;;;;6247235;28;89212;-69
2023/04/20 01:14:02;;;;;;;5.75;5.25;;;22.10;72.70;;;;;;6253708;28;89360;-69
2023/04/20 01:17:05;;;;;;;5.20;4.78;;;22.00;72.60;;;;;;6250544;28;89030;-69
2023/04/20 01:20:10;;;;;;;5.30;4.85;;;22.10;72.70;;;;;;6240610;28;88357;-69
2023/04/20 01:23:13;;;;;;;5.47;4.97;;;22.10;72.70;;;;;;6247857;28;89326;-69
2023/04/20 01:26:18;;;;;;;5.40;4.90;;;22.10;72.70;;;;;;6256126;28;89233;-70
2023/04/20 01:29:20;;;;;;;5.40;4.90;;;22.00;72.70;;;;;;6244054;28;88980;-69
2023/04/20 01:32:22;;;;;;;5.43;4.93;;;22.00;72.70;;;;;;6239958;28;89563;-69
2023/04/20 01:35:24;;;;;;;5.95;4.90;;;22.00;72.80;;;;;;6256352;28;87973;-69
2023/04/20 01:38:29;;;;;;;5.30;4.57;;;22.00;72.80;;;;;;6242929;28;89102;-69
2023/04/20 01:41:31;;;;;;;5.10;4.60;;;22.00;72.70;;;;;;6247401;28;89326;-70
2023/04/20 01:44:33;;;;;;;4.70;4.30;;;22.00;72.30;;;;;;6247984;28;89235;-69
2023/04/20 01:47:35;;;;;;;4.82;4.40;;;22.00;72.00;;;;;;6252517;28;89204;-69
2023/04/20 01:50:37;;;;;;;4.78;4.28;;;22.00;72.10;;;;;;6253301;28;88431;-70
2023/04/20 01:53:41;;;;;;;5.20;4.63;;;22.00;72.30;;;;;;6246374;28;88297;-69
2023/04/20 01:56:43;;;;;;;5.10;4.32;;;22.00;72.30;;;;;;6246299;28;89112;-70
2023/04/20 01:59:45;;;;;;;4.78;4.38;;;22.00;72.40;;;;;;6241041;28;90050;-70
2023/04/20 02:02:47;;;;;;;5.40;4.90;;;22.00;72.30;;;;;;6234353;28;88987;-69
2023/04/20 02:05:49;;;;;;;5.22;4.53;;;22.00;72.40;;;;;;6257533;28;88073;-70
2023/04/20 02:08:53;;;;;;;4.65;4.25;;;22.00;72.50;;;;;;6244628;28;88163;-69
2023/04/20 02:11:55;;;;;;;4.88;4.38;;;22.00;72.50;;;;;;6246143;28;90670;-70
2023/04/20 02:14:57;;;;;;;4.78;4.38;;;22.00;72.60;;;;;;6254261;28;89045;-70
2023/04/20 02:17:59;;;;;;;5.10;4.60;;;22.00;72.70;;;;;;6254890;28;89153;-70
2023/04/20 02:21:02;;;;;;;4.50;4.10;;;22.00;72.70;;;;;;6255550;28;88463;-70
2023/04/20 02:24:06;;;;;;;4.93;4.53;;;21.90;73.50;;;;;;6255141;28;89120;-69
2023/04/20 02:27:08;;;;;;;5.10;4.60;;;22.00;72.60;;;;;;6248369;28;89130;-70
2023/04/20 02:30:11;;;;;;;4.97;4.57;;;21.90;72.60;;;;;;6255838;28;90014;-69
2023/04/20 02:33:13;;;;;;;5.03;4.53;;;21.90;72.70;;;;;;6245333;28;89081;-70
2023/04/20 02:36:15;;;;;;;5.15;4.65;;;21.90;72.70;;;;;;6253241;28;89124;-70
2023/04/20 02:39:18;;;;;;;4.75;4.32;;;21.90;72.80;;;;;;6254506;28;89112;-70
2023/04/20 02:42:20;;;;;;;4.82;4.43;;;21.90;73.00;;;;;;6255252;28;89147;-70
2023/04/20 02:45:22;;;;;;;4.72;4.25;;;21.90;72.80;;;;;;6250926;28;89216;-71
2023/04/20 02:48:24;;;;;;;5.00;4.60;;;21.90;72.70;;;;;;6246965;28;88974;-70
2023/04/20 02:51:26;;;;;;;5.28;4.85;;;21.90;72.70;;;;;;6255565;27;87223;-70
2023/04/20 02:54:30;;;;;;;4.95;4.55;;;21.90;72.70;;;;;;6256084;28;89059;-70
2023/04/20 02:57:32;;;;;;;4.85;4.45;;;21.90;72.80;;;;;;6255022;28;89106;-70
2023/04/20 03:00:34;;;;;;;5.55;4.97;;;21.90;72.70;;;;;;6252320;28;89982;-69
2023/04/20 03:03:36;;;;;;;5.60;5.10;;;21.90;72.80;;;;;;6243131;28;89511;-70
2023/04/20 03:06:39;;;;;;;5.35;4.90;;;21.90;72.80;;;;;;6254793;28;89089;-70
2023/04/20 03:09:42;;;;;;;5.63;5.13;;;21.90;72.80;;;;;;6254407;28;89307;-70
2023/04/20 03:12:44;;;;;;;5.88;5.38;;;21.90;72.80;;;;;;6252027;28;89147;-70
2023/04/20 03:15:46;;;;;;;5.72;5.22;;;21.80;72.80;;;;;;6252286;28;89143;-69
2023/04/20 03:18:48;;;;;;;7.13;5.72;;;21.90;72.80;;;;;;6255722;28;88481;-70
2023/04/20 03:21:50;;;;;;;5.68;5.18;;;21.80;72.80;;;;;;6255988;28;88934;-70
2023/04/20 03:24:54;;;;;;;6.25;5.65;;;21.80;72.80;;;;;;6250112;28;89085;-69
2023/04/20 03:27:56;;;;;;;6.47;5.88;;;21.80;72.70;;;;;;6252224;28;88987;-69
2023/04/20 03:30:58;;;;;;;6.45;5.85;;;21.80;72.70;;;;;;6252685;28;90022;-69
2023/04/20 03:34:00;;;;;;;6.10;5.57;;;21.90;72.70;;;;;;6252011;28;89094;-70
2023/04/20 03:37:02;;;;;;;7.00;6.30;;;21.80;72.80;;;;;;6254585;28;88975;-69
2023/04/20 03:40:07;;;;;;;6.50;5.90;;;21.90;72.80;;;;;;6252659;28;89341;-69
2023/04/20 03:43:10;;;;;;;6.40;5.80;;;21.90;72.50;;;;;;6245240;28;89100;-69
2023/04/20 03:46:12;;;;;;;6.50;5.90;;;21.90;72.50;;;;;;6252604;28;89166;-69
2023/04/20 03:49:14;;;;;;;6.40;5.80;;;21.90;72.40;;;;;;6253123;28;89116;-69
2023/04/20 03:52:16;;;;;;;6.82;6.22;;;21.90;72.30;;;;;;6254652;27;88353;-69
2023/04/20 03:55:19;;;;;;;6.50;5.90;;;21.90;72.30;;;;;;6252775;28;89493;-69
2023/04/20 03:58:22;;;;;;;6.78;6.18;;;21.90;72.30;;;;;;6243148;28;89042;-69
2023/04/20 04:01:24;;;;;;;6.53;5.93;;;22.00;72.30;;;;;;6248829;28;90075;-68
2023/04/20 04:04:26;;;;;;;6.93;6.32;;;21.90;72.20;;;;;;6244773;28;88031;-69
2023/04/20 04:07:27;;;;;;;6.25;5.65;;;22.00;72.20;;;;;;6254181;28;88756;-70
2023/04/20 04:10:31;;;;;;;6.95;6.35;;;22.00;72.20;;;;;;6254658;28;88004;-70
2023/04/20 04:13:33;;;;;;;6.90;6.30;;;22.00;72.10;;;;;;6251225;28;88226;-70
2023/04/20 04:16:35;;;;;;;6.93;6.28;;;22.10;72.10;;;;;;6258696;28;89117;-69
2023/04/20 04:19:37;;;;;;;6.53;5.93;;;22.10;72.00;;;;;;6256771;28;87987;-70
2023/04/20 04:22:39;;;;;;;6.93;6.32;;;22.10;72.10;;;;;;6258540;28;88304;-69
2023/04/20 04:25:42;;;;;;;6.55;5.95;;;22.10;72.00;;;;;;6251425;28;89503;-70
2023/04/20 04:28:45;;;;;;;7.30;6.60;;;22.10;72.00;;;;;;6255774;28;88062;-70
2023/04/20 04:31:47;;;;;;;6.45;5.85;;;22.10;72.80;;;;;;6250318;28;89916;-69
2023/04/20 04:34:49;;;;;;;6.65;6.05;;;22.20;72.00;;;;;;6253541;28;89093;-69
2023/04/20 04:37:52;;;;;;;6.63;6.03;;;22.20;72.00;;;;;;6245457;28;89427;-70
2023/04/20 04:40:56;;;;;;;6.88;6.28;;;22.20;71.90;;;;;;6258337;28;89124;-70
2023/04/20 04:43:59;;;;;;;6.57;5.97;;;22.20;71.90;;;;;;6256208;28;89217;-70
2023/04/20 04:47:04;;;;;;;6.50;5.90;;;22.20;71.90;;;;;;6246563;28;89409;-70
2023/04/20 04:50:08;;;;;;;7.25;6.65;;;22.20;71.90;;;;;;6257270;28;89109;-70
2023/04/20 04:53:10;;;;;;;6.85;6.25;;;22.30;71.90;;;;;;6257460;27;88270;-70
2023/04/20 04:56:13;;;;;;;6.95;6.35;;;22.30;71.90;;;;;;6250799;27;89183;-66
2023/04/20 04:59:16;;;;;;;7.00;6.30;;;22.30;71.80;;;;;;6257702;27;89117;-68
2023/04/20 05:02:18;;;;;;;6.95;6.25;;;22.30;73.70;;;;;;6252956;28;90032;-67
2023/04/20 05:05:20;;;;;;;6.63;6.03;;;22.40;74.30;;;;;;6249817;28;89077;-67
2023/04/20 05:08:23;;;;;;;6.78;6.15;;;22.40;73.00;;;;;;6254960;28;89583;-67
2023/04/20 05:11:26;;;;;;;6.60;5.97;;;22.50;72.60;;;;;;6250026;28;89000;-67
2023/04/20 05:14:28;;;;;;;6.10;5.60;;;22.50;72.50;;;;;;6253467;28;89145;-66
2023/04/20 05:17:30;;;;;;;6.60;5.82;;;22.50;72.30;;;;;;6249387;28;89064;-67
2023/04/20 05:20:32;;;;;;;6.65;6.05;;;22.50;72.50;;;;;;6252081;28;89031;-67
2023/04/20 05:23:35;;;;;;;6.43;5.82;;;22.50;72.30;;;;;;6254080;27;88364;-67
2023/04/20 05:26:38;;;;;;;6.90;5.72;;;22.50;72.30;;;;;;6243806;27;89144;-68
2023/04/20 05:29:40;;;;;;;6.15;5.55;;;22.50;72.30;;;;;;6255455;28;89197;-67
2023/04/20 05:32:42;;;;;;;6.70;6.05;;;22.50;71.80;;;;;;6254442;28;90010;-67
2023/04/20 05:35:44;;;;;;;6.35;5.75;;;22.50;71.60;;;;;;6255323;28;89032;-67
2023/04/20 05:38:46;;;;;;;6.82;5.63;;;22.50;71.70;;;;;;6256549;28;89060;-67
2023/04/20 05:41:50;;;;;;;6.30;5.70;;;22.50;71.80;;;;;;6255933;28;89033;-67
2023/04/20 05:44:52;;;;;;;6.60;6.00;;;22.40;71.80;;;;;;6254999;28;89110;-67
2023/04/20 05:47:54;;;;;;;6.50;5.90;;;22.40;71.80;;;;;;6257114;28;89075;-67
2023/04/20 05:50:57;;;;;;;6.00;5.50;;;22.40;71.90;;;;;;6248654;28;89168;-67
2023/04/20 05:53:59;;;;;;;5.88;5.38;;;22.40;71.80;;;;;;6256978;28;87231;-67
2023/04/20 05:57:04;;;;;;;6.00;5.40;;;22.40;71.80;;;;;;6244219;28;89038;-67
2023/04/20 06:00:08;;;;;;;5.80;5.30;;;22.40;71.80;;;;;;6247126;28;89512;-67
2023/04/20 06:03:10;;;;;;;5.53;5.03;;;22.50;71.80;;;;;;6195176;28;90107;-67
2023/04/20 06:06:12;;;;;;;5.55;5.05;;;22.50;71.80;;;;;;6248980;28;89232;-67
2023/04/20 06:09:14;;;;;;;6.10;5.50;;;22.50;71.80;;;;;;6254965;28;89052;-66
2023/04/20 06:12:17;;;;;;;5.85;5.30;;;22.50;71.80;;;;;;6251789;28;89128;-67
2023/04/20 06:15:20;;;;;;;5.80;5.30;;;22.50;72.70;;;;;;6256699;28;88220;-67
2023/04/20 06:18:22;;;;;;;5.40;4.90;;;22.50;71.80;;;;;;6233935;28;87639;-66
2023/04/20 06:21:25;;;;;;;5.63;5.13;;;22.60;71.80;;;;;;6255644;28;88839;-67
2023/04/20 06:24:30;;;;;;;5.95;5.35;;;22.60;71.80;;;;;;6252218;28;88033;-67
2023/04/20 06:27:34;;;;;;;5.38;4.88;;;22.60;71.80;;;;;;6250934;28;89080;-67
2023/04/20 06:30:36;;;;;;;5.65;5.15;;;22.60;71.80;;;;;;6251410;28;89184;-67
2023/04/20 06:33:38;;;;;;;5.57;5.07;;;22.60;71.70;;;;;;6253206;28;89956;-67
2023/04/20 06:36:42;;;;;;;5.82;5.30;;;22.60;71.70;;;;;;6248867;28;89120;-66
2023/04/20 06:39:45;;;;;;;5.18;4.68;;;22.60;71.70;;;;;;6255899;28;89064;-67
2023/04/20 06:42:48;;;;;;;5.22;4.75;;;22.70;71.70;;;;;;6248009;28;89364;-67
2023/04/20 06:45:50;;;;;;;5.55;5.05;;;22.60;71.60;;;;;;6244829;28;90567;-67
2023/04/20 06:48:52;;;;;;;5.13;4.70;;;22.70;71.60;;;;;;6255429;28;89120;-67
2023/04/20 06:51:54;;;;;;;5.05;4.55;;;22.70;71.60;;;;;;6247373;28;89148;-67
2023/04/20 06:54:58;;;;;;;5.15;4.68;;;22.70;71.60;;;;;;6239926;28;88727;-66
2023/04/20 06:58:02;;;;;;;5.72;5.22;;;22.70;71.60;;;;;;6245136;28;89227;-67
2023/04/20 07:01:04;;;;;;;5.30;4.80;;;22.70;72.50;;;;;;6251157;28;89121;-66
2023/04/20 07:04:06;;;;;;;4.95;4.53;;;22.70;71.60;;;;;;6241959;28;91120;-67
2023/04/20 07:07:08;;;;;;;5.35;4.85;;;22.70;71.70;;;;;;6250574;28;89162;-67
2023/04/20 07:10:12;;;;;;;9.23;4.82;;;22.70;71.80;;;;;;6247195;28;89409;-68
2023/04/20 07:13:16;;;;;;;5.43;4.75;;;22.70;72.00;;;;;;6248813;27;89428;-69
2023/04/20 07:16:18;;;;;;;6.93;5.18;;;22.70;72.00;;;;;;6250567;28;89037;-68
2023/04/20 07:19:20;;;;;;;5.72;4.97;;;22.70;72.00;;;;;;6254589;28;89176;-69
2023/04/20 07:22:22;;;;;;;5.30;4.35;;;22.80;72.10;;;;;;6254715;28;89143;-69
2023/04/20 07:25:24;;;;;;;9.02;4.70;;;22.80;72.10;;;;;;6246401;28;88369;-70
2023/04/20 07:28:28;;;;;;;6.90;5.07;;;22.80;72.00;;;;;;6248484;28;88199;-69
2023/04/20 07:31:30;;;;;;;6.15;4.95;;;22.80;72.00;;;;;;6247160;28;89232;-69
2023/04/20 07:34:32;;;;;;;4.63;4.22;;;22.80;72.00;;;;;;6255400;28;90007;-69
2023/04/20 07:37:34;;;;;;;4.82;4.32;;;22.80;72.00;;;;;;6249279;28;87918;-69
2023/04/20 07:40:36;;;;;;;4.93;4.20;;;22.80;71.90;;;;;;6253978;28;89120;-70
2023/04/20 07:43:39;;;;;;;4.63;4.22;;;22.80;71.90;;;;;;6251893;28;89080;-69
2023/04/20 07:46:41;;;;;;;6.85;4.70;;;22.80;71.80;;;;;;6246406;28;89384;-69
2023/04/20 07:49:44;;;;;;;5.00;4.20;;;22.80;72.10;;;;;;6259092;28;89106;-67
2023/04/20 07:52:46;;;;;;;5.93;4.30;;;22.80;72.20;;;;;;6256109;28;89424;-68
2023/04/20 07:55:48;;;;;;;4.82;4.15;;;22.80;72.10;;;;;;6258955;28;88662;-69
2023/04/20 07:58:52;;;;;;;4.65;4.20;;;22.80;72.80;;;;;;6244206;28;89074;-69
2023/04/20 08:01:59;;;;;;;4.65;4.10;;;22.90;72.00;;;;;;6252341;28;89045;-68
2023/04/20 08:05:02;;;;;;;4.50;4.10;;;22.90;72.00;;;;;;6255165;28;88930;-69
2023/04/20 08:08:04;;;;;;;4.40;4.00;;;22.90;71.90;;;;;;6257565;28;89143;-68
2023/04/20 08:11:07;;;;;;;5.20;4.18;;;22.90;71.80;;;;;;6257833;28;89384;-69
2023/04/20 08:14:10;;;;;;;5.03;4.53;;;22.90;71.90;;;;;;6257626;28;88848;-69
2023/04/20 08:17:12;;;;;;;5.78;4.47;;;22.90;71.90;;;;;;6246950;28;89088;-69
2023/04/20 08:20:14;;;;;;;4.30;3.90;;;22.80;71.80;;;;;;6257462;28;89329;-70
2023/04/20 08:23:16;;;;;;;3.72;3.42;;;22.90;71.80;;;;;;6254677;28;88979;-69
2023/04/20 08:26:18;;;;;;;4.43;3.90;;;22.90;71.80;;;;;;6248605;28;88268;-70
2023/04/20 08:29:22;;;;;;;4.20;3.90;;;22.90;71.80;;;;;;6252833;28;88137;-69
2023/04/20 08:32:25;;;;;;;4.38;3.90;;;22.90;71.80;;;;;;6251376;28;89107;-69
2023/04/20 08:35:27;;;;;;;4.63;3.83;;;22.90;71.80;;;;;;6257083;28;89847;-70
2023/04/20 08:38:30;;;;;;;4.20;3.80;;;22.90;71.70;;;;;;6252741;28;89039;-70
2023/04/20 08:41:32;;;;;;;4.35;3.95;;;23.00;71.80;;;;;;6257153;28;89103;-69
2023/04/20 08:44:36;;;;;;;4.13;3.72;;;22.90;72.50;;;;;;6257687;28;89062;-69
2023/04/20 08:47:38;;;;;;;4.28;3.88;;;23.00;71.60;;;;;;6249264;28;90207;-69
2023/04/20 08:50:41;;;;;;;4.55;3.63;;;23.00;71.60;;;;;;6257091;28;89079;-69
2023/04/20 08:53:43;;;;;;;4.00;3.60;;;23.00;71.60;;;;;;6256479;28;89384;-69
2023/04/20 08:56:47;;;;;;;4.10;3.70;;;22.90;71.60;;;;;;6257992;28;88417;-69
2023/04/20 08:59:50;;;;;;;4.07;3.67;;;23.00;71.60;;;;;;6254722;27;89131;-69
2023/04/20 09:02:54;;;;;;;4.45;3.70;;;23.00;71.60;;;;;;6245238;28;89501;-70
2023/04/20 09:05:56;;;;;;;4.28;3.50;;;23.00;71.60;;;;;;6253357;28;90478;-69
2023/04/20 09:08:58;;;;;;;4.05;3.60;;;23.00;71.60;;;;;;6245781;28;89053;-69
2023/04/20 09:12:02;;;;;;;3.58;3.28;;;23.00;71.60;;;;;;6249935;28;89564;-69
2023/04/20 09:15:07;;;;;;;3.78;3.47;;;23.00;71.50;;;;;;6249633;27;89319;-69
2023/04/20 09:18:14;;;;;;;3.78;3.22;;;23.00;71.50;;;;;;6249495;28;89153;-69
2023/04/20 09:21:16;;;;;;;3.75;3.45;;;23.00;71.50;;;;;;6256248;28;89486;-70
2023/04/20 09:24:20;;;;;;;3.50;3.20;;;23.00;71.50;;;;;;6251796;28;89053;-69
2023/04/20 09:27:22;;;;;;;3.35;3.05;;;23.00;71.50;;;;;;6242660;28;88624;-70
2023/04/20 09:30:36;;;;;;;3.92;3.55;;;23.00;71.40;;;;;;6255245;28;88616;-69
2023/04/20 09:33:38;;;;;;;4.68;3.20;;;23.00;71.40;;;;;;6256198;28;89170;-69
2023/04/20 09:36:42;;;;;;;4.38;3.40;;;23.00;71.40;;;;;;6253474;28;89942;-70
2023/04/20 09:39:45;;;;;;;3.42;3.13;;;23.10;71.50;;;;;;6256858;28;89135;-69
2023/04/20 09:42:49;;;;;;;3.35;3.05;;;23.00;71.40;;;;;;6256715;28;89051;-69
2023/04/20 09:45:55;;;;;;;3.50;3.10;;;23.10;71.50;;;;;;6248571;28;90091;-70
2023/04/20 09:48:57;;;;;;;3.40;3.10;;;23.00;71.40;;;;;;6253469;28;89250;-69
2023/04/20 09:52:02;;;;;;;3.15;2.85;;;23.10;71.50;;;;;;6254723;28;87929;-70
2023/04/20 09:55:06;;;;;;;3.50;3.20;;;23.10;71.50;;;;;;6255488;28;89024;-69
2023/04/20 09:58:09;;;;;;;4.43;3.33;;;23.10;71.50;;;;;;6244159;27;88008;-69
2023/04/20 10:01:13;;;;;;;3.53;3.22;;;23.10;71.50;;;;;;6243497;28;87892;-69
2023/04/20 10:04:15;;;;;;;3.30;3.00;;;23.10;71.50;;;;;;6251067;28;89069;-70
2023/04/20 10:07:24;;;;;;;3.45;3.15;;;23.10;71.50;;;;;;6249656;28;90135;-69
2023/04/20 10:10:27;;;;;;;3.38;3.08;;;23.10;71.60;;;;;;6256675;27;89090;-69
2023/04/20 10:13:34;;;;;;;3.10;2.90;;;23.10;71.60;;;;;;6249838;28;89010;-69
2023/04/20 10:16:37;;;;;;;3.20;2.90;;;23.10;71.50;;;;;;6255371;27;89082;-69
2023/04/20 10:19:40;;;;;;;3.40;3.10;;;23.10;71.50;;;;;;6251640;28;89211;-69
2023/04/20 10:22:42;;;;;;;3.38;3.08;;;23.10;71.60;;;;;;6253470;28;89085;-69
2023/04/20 10:25:55;;;;;;;3.35;3.05;;;23.10;71.60;;;;;;6249462;28;89428;-69
2023/04/20 10:28:57;;;;;;;4.18;3.10;;;23.20;72.10;;;;;;6253105;28;88194;-68
2023/04/20 10:32:00;;;;;;;3.70;3.40;;;23.20;72.90;;;;;;6253910;28;89195;-69
2023/04/20 10:35:05;;;;;;;4.22;3.63;;;23.20;75.00;;;;;;6255726;28;89542;-68
2023/04/20 10:38:09;;;;;;;4.47;3.35;;;23.20;75.00;;;;;;6251354;28;90326;-68
2023/04/20 10:41:12;;;;;;;3.90;3.50;;;23.30;74.00;;;;;;6255217;28;89402;-69
2023/04/20 10:44:15;;;;;;;5.57;3.75;;;23.80;72.60;;;;;;6253739;28;89033;-69
2023/04/20 10:47:26;;;;;;;4.03;3.65;;;24.20;71.10;;;;;;6250803;27;89054;-69
2023/04/20 10:50:28;;;;;;;4.38;3.40;;;24.50;70.20;;;;;;6255139;28;89060;-70
2023/04/20 10:53:30;;;;;;;4.05;3.63;;;24.60;69.60;;;;;;6254830;28;89533;-69
2023/04/20 10:56:40;;;;;;;3.70;3.40;;;24.50;69.50;;;;;;6253989;28;89124;-69
2023/04/20 10:59:43;;;;;;;3.83;3.45;;;24.50;69.50;;;;;;6253530;28;88686;-69
2023/04/20 11:02:53;;;;;;;3.72;3.33;;;24.30;69.50;;;;;;6251588;28;89052;-69
2023/04/20 11:05:56;;;;;;;4.07;3.15;;;24.30;69.80;;;;;;6253134;28;88691;-70
2023/04/20 11:08:58;;;;;;;3.55;3.13;;;24.10;69.80;;;;;;6251521;27;89981;-70
2023/04/20 11:12:01;;;;;;;3.33;3.03;;;24.10;70.00;;;;;;6255832;28;89467;-70
2023/04/20 11:15:03;;;;;;;3.75;3.45;;;24.10;70.20;;;;;;6248260;28;88998;-69
2023/04/20 11:18:11;;;;;;;3.70;3.40;;;23.90;70.20;;;;;;6248179;28;89226;-69
2023/04/20 11:21:13;;;;;;;3.60;3.30;;;23.90;70.40;;;;;;6254659;28;88894;-71
2023/04/20 11:24:19;;;;;;;3.30;3.00;;;23.90;70.50;;;;;;6254952;28;89430;-69
2023/04/20 11:27:23;;;;;;;3.20;2.90;;;23.90;70.60;;;;;;6243869;28;89041;-70
2023/04/20 11:30:25;;;;;;;3.42;3.13;;;23.80;70.60;;;;;;6259170;28;88538;-69
2023/04/20 11:33:30;;;;;;;3.10;2.90;;;23.80;70.80;;;;;;6257016;28;88594;-70
2023/04/20 11:36:33;;;;;;;3.38;3.08;;;23.80;71.70;;;;;;6258540;28;90339;-70
2023/04/20 11:39:35;;;;;;;3.38;3.08;;;23.70;70.80;;;;;;6257724;28;90096;-69
2023/04/20 11:42:37;;;;;;;3.33;3.00;;;23.70;70.90;;;;;;6243375;28;89414;-70
2023/04/20 11:45:40;;;;;;;3.10;2.80;;;23.70;71.00;;;;;;6247772;28;89371;-69
2023/04/20 11:48:43;;;;;;;2.92;2.72;;;23.70;71.00;;;;;;6249865;28;89004;-69
2023/04/20 11:51:46;;;;;;;3.00;2.70;;;23.70;71.10;;;;;;6257619;28;89038;-69
2023/04/20 11:54:48;;;;;;;3.35;3.05;;;23.70;71.20;;;;;;6254108;28;89048;-69
2023/04/20 11:57:50;;;;;;;3.20;2.90;;;23.60;71.30;;;;;;6255591;28;89145;-69
2023/04/20 12:00:52;;;;;;;2.97;2.78;;;23.60;71.30;;;;;;6258345;28;89658;-69
2023/04/20 12:03:55;;;;;;;3.20;2.90;;;23.60;71.30;;;;;;6247443;28;87947;-70
2023/04/20 12:06:58;;;;;;;3.70;2.60;;;23.60;71.30;;;;;;6257010;28;89459;-70
2023/04/20 12:10:00;;;;;;;3.00;2.70;;;23.60;71.40;;;;;;6257809;28;90344;-70
2023/04/20 12:13:02;;;;;;;2.80;2.60;;;23.60;71.50;;;;;;6257855;28;89174;-69
2023/04/20 12:16:04;;;;;;;3.20;2.90;;;23.60;71.40;;;;;;6247611;28;89149;-69
2023/04/20 12:19:08;;;;;;;2.90;2.70;;;23.60;71.40;;;;;;6251504;28;89190;-70
2023/04/20 12:22:10;;;;;;;2.78;2.47;;;23.60;71.40;;;;;;6258217;28;87928;-69
2023/04/20 12:25:12;;;;;;;3.10;2.80;;;23.60;71.50;;;;;;6252491;28;89453;-69
2023/04/20 12:28:14;;;;;;;3.95;2.63;;;23.60;71.60;;;;;;6251876;28;89253;-69
2023/04/20 12:31:16;;;;;;;2.88;2.63;;;23.60;71.60;;;;;;6258724;28;88348;-69
2023/04/20 12:34:20;;;;;;;3.28;2.50;;;23.60;71.60;;;;;;6257581;28;89077;-70
2023/04/20 12:37:22;;;;;;;4.10;2.97;;;23.60;71.60;;;;;;6257223;28;88990;-69
2023/04/20 12:40:24;;;;;;;2.80;2.60;;;23.60;71.60;;;;;;6246830;28;90081;-70
2023/04/20 12:43:27;;;;;;;2.85;2.65;;;23.60;71.70;;;;;;6258838;28;89013;-70
2023/04/20 12:46:29;;;;;;;3.22;2.60;;;23.60;71.70;;;;;;6253454;28;88297;-69
2023/04/20 12:49:33;;;;;;;3.08;2.78;;;23.60;71.70;;;;;;6258312;28;89092;-69
2023/04/20 12:52:35;;;;;;;2.78;2.58;;;23.60;71.70;;;;;;6257173;28;89068;-69
2023/04/20 12:55:36;;;;;;;3.38;2.67;;;23.50;71.60;;;;;;6257859;28;89425;-69
2023/04/20 12:58:39;;;;;;;3.05;2.75;;;23.60;71.70;;;;;;6248869;28;89119;-69
2023/04/20 13:01:41;;;;;;;3.20;2.90;;;23.50;71.70;;;;;;6240220;28;88444;-69
2023/04/20 13:04:44;;;;;;;2.85;2.65;;;23.50;71.80;;;;;;6252470;28;89410;-69
2023/04/20 13:07:46;;;;;;;2.97;2.72;;;23.50;71.80;;;;;;6258078;28;89901;-68
2023/04/20 13:10:48;;;;;;;3.40;2.85;;;23.50;71.80;;;;;;6253751;28;90451;-69
2023/04/20 13:13:50;;;;;;;2.70;2.50;;;23.50;71.80;;;;;;6245459;28;90644;-69
2023/04/20 13:16:52;;;;;;;2.70;2.50;;;23.40;71.80;;;;;;6257790;28;89122;-68
2023/04/20 13:19:56;;;;;;;2.72;2.53;;;23.50;71.80;;;;;;6256439;28;89096;-69
2023/04/20 13:23:00;;;;;;;2.97;2.53;;;23.50;71.80;;;;;;6251188;28;89038;-69
2023/04/20 13:26:02;;;;;;;2.80;2.60;;;23.50;71.80;;;;;;6257491;28;89375;-70
2023/04/20 13:29:04;;;;;;;2.75;2.55;;;23.50;71.70;;;;;;6251320;27;89041;-69
2023/04/20 13:32:06;;;;;;;2.90;2.67;;;23.50;71.80;;;;;;6257400;28;88449;-69
2023/04/20 13:35:11;;;;;;;3.17;2.88;;;23.50;72.70;;;;;;6255827;28;89040;-69
2023/04/20 13:38:13;;;;;;;2.80;2.60;;;23.50;71.70;;;;;;6256398;28;89310;-69
2023/04/20 13:41:15;;;;;;;2.80;2.60;;;23.50;71.70;;;;;;6256618;28;90038;-69
2023/04/20 13:44:17;;;;;;;2.70;2.50;;;23.40;71.60;;;;;;6256939;28;90296;-70
2023/04/20 13:47:19;;;;;;;2.83;2.63;;;23.50;71.70;;;;;;6252963;28;88120;-69
2023/04/20 13:50:23;;;;;;;2.80;2.60;;;23.40;71.70;;;;;;6256407;28;89095;-69
2023/04/20 13:53:25;;;;;;;2.60;2.40;;;23.40;71.70;;;;;;6255713;28;89168;-70
2023/04/20 13:56:27;;;;;;;2.80;2.60;;;23.40;71.80;;;;;;6255093;28;89383;-69
2023/04/20 13:59:29;;;;;;;2.90;2.70;;;23.40;71.80;;;;;;6251584;28;89088;-70
2023/04/20 14:02:32;;;;;;;2.70;2.50;;;23.40;71.70;;;;;;6233939;28;87196;-69
2023/04/20 14:05:36;;;;;;;2.88;2.67;;;23.40;71.70;;;;;;6241994;28;89229;-71
2023/04/20 14:08:38;;;;;;;2.65;2.45;;;23.40;71.80;;;;;;6254112;28;89166;-70
2023/04/20 14:11:40;;;;;;;2.80;2.60;;;23.40;71.80;;;;;;6255456;28;90298;-71
2023/04/20 14:14:42;;;;;;;2.72;2.50;;;23.40;71.80;;;;;;6255169;28;89093;-71
2023/04/20 14:17:44;;;;;;;2.60;2.40;;;23.40;71.70;;;;;;6255137;28;88991;-71
2023/04/20 14:20:51;;;;;;;2.88;2.63;;;23.40;71.80;;;;;;6256127;28;88054;-71
2023/04/20 14:23:54;;;;;;;2.60;2.40;;;23.40;71.70;;;;;;6255501;28;88978;-71
2023/04/20 14:26:56;;;;;;;2.58;2.38;;;23.40;71.70;;;;;;6244150;28;89329;-71
2023/04/20 14:29:58;;;;;;;2.65;2.45;;;23.40;71.80;;;;;;6256507;28;89088;-70
2023/04/20 14:33:02;;;;;;;2.78;2.45;;;23.40;72.70;;;;;;6256558;28;87514;-71
2023/04/20 14:36:06;;;;;;;2.67;2.47;;;23.40;71.80;;;;;;6255403;28;88005;-71
2023/04/20 14:39:08;;;;;;;2.67;2.47;;;23.30;71.70;;;;;;6256303;28;89147;-70
2023/04/20 14:42:10;;;;;;;2.60;2.40;;;23.30;71.70;;;;;;6254996;28;89956;-71
2023/04/20 14:45:13;;;;;;;3.03;2.72;;;23.30;71.70;;;;;;6253290;28;89084;-71
2023/04/20 14:48:14;;;;;;;2.80;2.60;;;23.30;71.80;;;;;;6255197;28;89219;-71
2023/04/20 14:51:19;;;;;;;2.63;2.42;;;23.30;71.80;;;;;;6253275;28;89035;-71
2023/04/20 14:54:21;;;;;;;2.70;2.50;;;23.30;71.80;;;;;;6254953;28;89420;-71
2023/04/20 14:57:23;;;;;;;2.85;2.65;;;23.30;71.80;;;;;;6246327;27;89015;-71
2023/04/20 15:00:26;;;;;;;2.70;2.50;;;23.30;71.80;;;;;;6248685;28;89146;-71
2023/04/20 15:03:29;;;;;;;2.70;2.50;;;23.30;71.80;;;;;;6242861;28;87548;-70
2023/04/20 15:06:33;;;;;;;2.83;2.53;;;23.30;71.80;;;;;;6254734;28;89152;-71
2023/04/20 15:09:35;;;;;;;2.53;2.33;;;23.30;71.80;;;;;;6254916;28;89350;-71
2023/04/20 15:12:37;;;;;;;2.70;2.40;;;23.30;71.80;;;;;;6254582;28;90000;-71
2023/04/20 15:15:39;;;;;;;2.58;2.38;;;23.30;71.80;;;;;;6255050;27;89207;-70
2023/04/20 15:18:41;;;;;;;2.80;2.60;;;23.30;71.80;;;;;;6256656;27;89323;-71
2023/04/20 15:21:44;;;;;;;2.60;2.40;;;23.20;71.70;;;;;;6254946;28;89103;-71
2023/04/20 15:24:46;;;;;;;2.60;2.40;;;23.30;71.80;;;;;;6252748;28;88126;-70
2023/04/20 15:27:48;;;;;;;2.88;2.60;;;23.30;71.80;;;;;;6250819;28;89035;-70
2023/04/20 15:30:50;;;;;;;3.10;2.90;;;23.30;71.80;;;;;;6255452;28;89235;-70
2023/04/20 15:33:52;;;;;;;2.70;2.50;;;23.20;71.80;;;;;;6256598;28;88408;-70
2023/04/20 15:36:55;;;;;;;3.13;2.50;;;23.30;71.80;;;;;;6255636;28;89054;-70
2023/04/20 15:39:58;;;;;;;2.70;2.50;;;23.20;71.80;;;;;;6253958;28;87925;-70
2023/04/20 15:43:01;;;;;;;2.55;2.35;;;23.20;71.80;;;;;;6255049;28;90345;-70
2023/04/20 15:46:03;;;;;;;2.80;2.60;;;23.20;71.80;;;;;;6253266;28;88188;-70
2023/04/20 15:49:05;;;;;;;2.92;2.40;;;23.20;71.80;;;;;;6253981;28;89082;-70
2023/04/20 15:52:09;;;;;;;2.90;2.65;;;23.20;71.80;;;;;;6253699;28;89604;-70